• Join FlightAware (Why Join?)
  • Login
  • US Flag 
Gobble Gobble! 
08:28AM EST


 

Airport Tracker/Info


-or-


 

Live Flight TrackerFlight Track Log ✈ N7074Y ✈ 02-May-2013 ✈ KRFD - KLOU

Flight Track Log - Related Links

Times and Time Zones

All times are in EDT time to prevent confusion due to time zone crossing. See the N7074Y flight status page for this flight to view local times or setup timezone preferences in your user account.

Time Position Orientation Groundspeed Altitude Reporting Facility
EDT Latitude Longitude Course Direction KTS MPH feet Rate Location/Type
04:35PM 42.1164 -89.0994 189° South 111 128 3,800  Level Chicago Center
04:36PM 42.0800 -89.0922 172° South 115 132 4,100 420 Climbing Chicago Center
04:37PM 42.0433 -89.0867 174° South 132 152 4,700 480 Climbing Chicago Center
04:38PM 42.0139 -89.0792 169° South 113 130 5,200 180 Climbing Chicago Center
04:39PM 41.9909 -88.9077 175° South  Level Estimated
04:39PM 41.9778 -89.0744 174° South 131 151 5,100  Level Chicago Center
04:40PM 41.9500 -88.9163 189° South  Level FlightAware Approximate
04:41PM 41.9178 -89.0441 175° South  Level FlightAware Approximate
04:44PM 41.7708 -89.0431 175° South 145 167 5,100  Level Chicago Center
04:46PM 41.7253 -88.9967 143° Southeast  Level Estimated
04:46PM 41.6836 -89.0225 143° Southeast 150 173 5,100  Level Chicago Center
04:47PM 41.6533 -88.9878 139° Southeast 149 171 5,100  Level Chicago Center
04:48PM 41.6294 -89.0095 175° South  Level FlightAware Approximate
04:48PM 41.6206 -88.9542 143° Southeast 150 173 5,100  Level Chicago Center
04:49PM 41.5882 -89.0046 175° South  Level FlightAware Approximate
04:49PM 41.5881 -88.9231 144° Southeast 146 168 5,100  Level Chicago Center
04:50PM 41.5517 -88.8833 141° Southeast 143 165 5,100 -60 Level Chicago Center
04:51PM 41.5197 -88.8517 143° Southeast 143 165 5,000 -60 Descending Chicago Center
04:52PM 41.4922 -88.8219 141° Southeast 134 154 5,000  Level Chicago Center
04:53PM 41.4945 -88.7628 143° Southeast  Level Estimated
04:53PM 41.4611 -88.7903 143° Southeast 138 159 5,000  Level Chicago Center
04:54PM 41.4616 -88.7296 143° Southeast  Level Estimated
04:54PM 41.4272 -88.7561 143° Southeast 148 170 5,000  Level Chicago Center
04:56PM 41.3883 -88.7158 142° Southeast 149 171 5,000  Level Chicago Center
04:57PM 41.3556 -88.6828 143° Southeast 149 171 5,000  Level Chicago Center
04:58PM 41.3239 -88.6497 142° Southeast 148 170 5,000  Level Chicago Center
04:59PM 41.2914 -88.6172 143° Southeast 147 169 5,000  Level Chicago Center
05:00PM 41.2597 -88.5850 143° Southeast 146 168 5,000  Level Chicago Center
05:01PM 41.2217 -88.5447 141° Southeast 146 168 5,000  Level Chicago Center
05:02PM 41.1897 -88.5125 143° Southeast 146 168 5,000  Level Chicago Center
05:03PM 41.1564 -88.4800 144° Southeast 148 170 5,000  Level Chicago Center
05:04PM 41.1233 -88.4456 142° Southeast 151 174 5,000  Level Chicago Center
05:05PM 41.0914 -88.4114 141° Southeast 150 173 5,000  Level Chicago Center
05:06PM 41.0525 -88.3739 144° Southeast 148 170 5,000  Level Chicago Center
05:07PM 41.0203 -88.3417 143° Southeast 146 168 5,000 -60 Level Chicago Center
05:08PM 40.9867 -88.3075 142° Southeast 150 173 4,900 -60 Descending Chicago Center
05:09PM 40.9536 -88.2728 142° Southeast 152 175 4,900  Level Chicago Center
05:10PM 40.9206 -88.2397 143° Southeast 151 174 4,900  Level Chicago Center
05:11PM 40.8811 -88.2006 143° Southeast 150 173 4,900  Level Chicago Center
05:12PM 40.8475 -88.1675 143° Southeast 150 173 4,900  Level Chicago Center
05:13PM 40.8150 -88.1331 141° Southeast 151 174 4,900  Level Chicago Center
05:14PM 40.7836 -88.1014 143° Southeast 146 168 5,000  Climbing Chicago Center
05:15PM 40.7506 -88.0689 143° Southeast 147 169 5,000  Level Chicago Center
05:16PM 40.7119 -88.0300 143° Southeast 147 169 5,000  Level Chicago Center
05:17PM 40.6786 -87.9975 144° Southeast 148 170 5,000  Level Chicago Center
05:18PM 40.6464 -87.9647 142° Southeast 148 170 5,000  Level Chicago Center
05:19PM 40.6139 -87.9333 144° Southeast 146 168 5,000  Level Chicago Center
05:20PM 40.5825 -87.9006 142° Southeast 146 168 5,000  Level Chicago Center
05:21PM 40.5436 -87.8628 144° Southeast 145 167 5,000  Level Chicago Center
05:22PM 40.5111 -87.8308 143° Southeast 146 168 5,000  Level Chicago Center
05:23PM 40.4786 -87.7972 142° Southeast 147 169 5,000  Level Chicago Center
05:24PM 40.4453 -87.7650 144° Southeast 148 170 5,000  Level Chicago Center
05:26PM 40.4128 -87.7336 144° Southeast 147 169 5,000  Level Chicago Center
05:27PM 40.3739 -87.6947 143° Southeast 148 170 5,000  Level Chicago Center
05:28PM 40.3408 -87.6625 143° Southeast 148 170 5,000  Level Chicago Center
05:29PM 40.3069 -87.6281 142° Southeast 152 175 5,000  Level Chicago Center
05:30PM 40.2728 -87.5958 144° Southeast 153 176 5,000  Level Chicago Center
05:31PM 40.2406 -87.5650 144° Southeast 148 170 5,000  Level Chicago Center
05:32PM 40.2000 -87.5250 143° Southeast 151 174 5,000  Level Chicago Center
05:33PM 40.1717 -87.4967 143° Southeast 149 171 5,000  Level Chicago Center
05:34PM 40.1328 -87.4594 144° Southeast 146 168 5,000  Level Chicago Center
05:35PM 40.1056 -87.4322 143° Southeast 146 168 5,000  Level Indianapolis Center
05:36PM 40.0717 -87.4000 144° Southeast 148 170 5,000  Level Indianapolis Center
05:37PM 40.0383 -87.3681 144° Southeast 149 171 5,000  Level Indianapolis Center
05:38PM 40.0042 -87.3342 143° Southeast 151 174 5,000  Level Indianapolis Center
05:39PM 39.9697 -87.3019 144° Southeast 152 175 5,000  Level Indianapolis Center
05:40PM 39.9311 -87.2653 144° Southeast 148 170 5,000  Level Indianapolis Center
05:41PM 39.8992 -87.2331 142° Southeast 147 169 5,000  Level Indianapolis Center
05:42PM 39.8661 -87.2000 142° Southeast 148 170 5,000  Level Indianapolis Center
05:43PM 39.8328 -87.1681 144° Southeast 148 170 5,000  Level Indianapolis Center
05:44PM 39.7994 -87.1358 143° Southeast 150 173 5,000  Level Indianapolis Center
05:45PM 39.7589 -87.0978 144° Southeast 150 173 5,000  Level Indianapolis Center
05:46PM 39.7261 -87.0656 143° Southeast 148 170 5,000  Level Indianapolis Center
05:47PM 39.6933 -87.0339 143° Southeast 148 170 5,000  Level Indianapolis Center
05:48PM 39.6594 -87.0025 145° Southeast 151 174 5,000  Level Indianapolis Center
05:49PM 39.6269 -86.9703 143° Southeast 148 170 5,000  Level Indianapolis Center
05:50PM 39.5861 -86.9317 144° Southeast 151 174 5,000  Level Indianapolis Center
05:51PM 39.5525 -86.9000 144° Southeast 151 174 5,000  Level Indianapolis Center
05:52PM 39.5197 -86.8681 143° Southeast 149 171 5,000  Level Indianapolis Center
05:53PM 39.4869 -86.8361 143° Southeast 149 171 5,000  Level Indianapolis Center
05:54PM 39.4556 -86.8058 143° Southeast 145 167 5,000  Level Indianapolis Center
05:55PM 39.4236 -86.7761 144° Southeast 143 165 5,000  Level Indianapolis Center
05:56PM 39.3844 -86.7386 143° Southeast 145 167 5,000  Level Indianapolis Center
05:57PM 39.3514 -86.7078 144° Southeast 146 168 5,000  Level Indianapolis Center
05:58PM 39.3186 -86.6769 144° Southeast 147 169 5,000  Level Indianapolis Center
05:59PM 39.2867 -86.6464 143° Southeast 145 167 5,000  Level Indianapolis Center
06:00PM 39.2542 -86.6158 144° Southeast 145 167 5,000  Level Indianapolis Center
06:02PM 39.2142 -86.5786 144° Southeast 147 169 5,000  Level Indianapolis Center
06:03PM 39.1814 -86.5464 143° Southeast 148 170 5,000  Level Indianapolis Center
06:04PM 39.1486 -86.5167 145° Southeast 146 168 5,000  Level Indianapolis Center
06:05PM 39.1172 -86.4872 144° Southeast 142 163 5,000  Level Indianapolis Center
06:06PM 39.0850 -86.4575 144° Southeast 142 163 5,000  Level Indianapolis Center
06:07PM 39.0458 -86.4206 144° Southeast 145 167 5,000  Level Indianapolis Center
06:08PM 39.0117 -86.3897 145° Southeast 148 170 5,000  Level Indianapolis Center
06:09PM 38.9781 -86.3572 143° Southeast 150 173 5,000  Level Indianapolis Center
06:10PM 38.9447 -86.3258 144° Southeast 150 173 5,000  Level Indianapolis Center
06:11PM 38.9108 -86.2953 145° Southeast 150 173 5,000  Level Indianapolis Center
06:12PM 38.8722 -86.2578 143° Southeast 151 174 5,100  Climbing Indianapolis Center
06:13PM 38.8389 -86.2272 144° Southeast 149 171 5,100  Level Indianapolis Center
06:14PM 38.8047 -86.1964 145° Southeast 149 171 5,100  Level Indianapolis Center
06:15PM 38.7714 -86.1639 143° Southeast 149 171 5,100  Level Indianapolis Center
06:16PM 38.7431 -86.1222 131° Southeast 153 176 5,100  Level Indianapolis Center
06:17PM 38.7164 -86.0786 128° Southeast 155 178 5,100  Level Indianapolis Center
06:18PM 38.6942 -86.0381 125° Southeast 146 168 5,100 -300 Level Indianapolis Center
06:19PM 38.6617 -85.9853 128° Southeast 154 177 4,500 -540 Descending Indianapolis Center
06:20PM 38.6347 -85.9411 128° Southeast 156 180 4,100 -240 Descending Indianapolis Center
06:21PM 38.6119 -85.9028 127° Southeast 142 163 4,100  Level Indianapolis Center
06:22PM 38.5911 -85.8672 127° Southeast 129 148 4,100  Level Indianapolis Center
06:23PM 38.5700 -85.8297 126° Southeast 128 147 4,100  Level Indianapolis Center
06:24PM 38.5397 -85.8044 147° Southeast 131 151 4,100  Level Indianapolis Center
06:25PM 38.5014 -85.7875 161° South 139 160 4,100 -240 Level Indianapolis Center
06:26PM 38.4572 -85.7675 160° South 140 161 3,700 -480 Descending Indianapolis Center
06:27PM 38.4192 -85.7511 161° South 141 162 3,200 -300 Descending Indianapolis Center
06:28PM 38.3831 -85.7342 160° South 141 162 3,100 -180 Descending Indianapolis Center
06:29PM 38.3503 -85.7186 160° South 136 157 2,900 -180 Descending Indianapolis Center
06:30PM 38.3169 -85.7017 158° South 135 155 2,800 -120 Descending Indianapolis Center
06:34PM 38.2577 -85.6854 168° South  Level FlightAware Approximate
06:41PM 38.2280 -85.6637 142° Southeast  Level Estimated